createdAt,value
2017-12-25T00:01:39.711Z,93.50
2017-12-25T00:04:07.333Z,93.50
2017-12-25T00:06:35.940Z,93.40
2017-12-25T00:09:03.499Z,93.10
2017-12-25T00:11:31.069Z,92.90
2017-12-25T00:13:58.805Z,92.80
2017-12-25T00:16:26.966Z,92.60
2017-12-25T00:18:54.636Z,92.60
2017-12-25T00:21:22.608Z,92.50
2017-12-25T00:23:50.374Z,92.80
2017-12-25T00:26:17.941Z,92.90
2017-12-25T00:28:45.495Z,92.90
2017-12-25T00:31:13.002Z,93.00
2017-12-25T00:33:40.543Z,93.30
2017-12-25T00:36:08.067Z,93.40
2017-12-25T00:38:35.606Z,93.80
2017-12-25T00:41:03.241Z,93.80
2017-12-25T00:43:31.209Z,94.10
2017-12-25T00:46:00.262Z,94.30
2017-12-25T00:48:29.689Z,94.60
2017-12-25T00:50:57.444Z,94.60
2017-12-25T00:53:25.717Z,94.80
2017-12-25T00:55:53.884Z,95.00
2017-12-25T00:58:23.303Z,95.10
2017-12-25T01:00:53.331Z,95.10
2017-12-25T01:03:21.981Z,95.30
2017-12-25T01:05:49.507Z,95.30
2017-12-25T01:08:17.218Z,95.30
2017-12-25T01:10:44.865Z,95.20
2017-12-25T01:13:12.382Z,95.40
2017-12-25T01:15:40.456Z,95.50
2017-12-25T01:18:09.621Z,95.90
2017-12-25T01:20:37.177Z,95.70
2017-12-25T01:23:05.200Z,95.80
2017-12-25T01:25:33.186Z,95.90
2017-12-25T01:28:01.411Z,96.00
2017-12-25T01:30:30.051Z,96.30
2017-12-25T01:32:58.099Z,96.30
2017-12-25T01:35:26.857Z,96.60
2017-12-25T01:37:54.966Z,96.60
2017-12-25T01:40:22.691Z,96.50
2017-12-25T01:42:51.250Z,96.50
2017-12-25T01:45:18.774Z,96.50
2017-12-25T01:47:47.061Z,96.50
2017-12-25T01:50:14.598Z,96.50
2017-12-25T01:52:42.902Z,96.70
2017-12-25T01:55:10.441Z,96.70
2017-12-25T01:57:46.470Z,96.50
2017-12-25T02:03:13.764Z,96.40
2017-12-25T02:05:50.275Z,96.00
2017-12-25T02:08:33.462Z,96.00
2017-12-25T02:11:01.866Z,95.30
2017-12-25T02:13:30.169Z,95.30
2017-12-25T02:15:57.929Z,95.30
2017-12-25T02:18:25.605Z,95.20
2017-12-25T02:20:53.785Z,95.10
2017-12-25T02:23:22.364Z,95.20
2017-12-25T02:25:51.040Z,95.30
2017-12-25T02:28:18.697Z,95.30
2017-12-25T02:30:46.218Z,95.50
2017-12-25T02:33:13.768Z,95.70
2017-12-25T02:35:41.283Z,96.10
2017-12-25T02:38:08.792Z,95.90
2017-12-25T02:40:36.321Z,95.80
2017-12-25T02:43:03.863Z,95.80
2017-12-25T02:45:31.736Z,95.90
2017-12-25T02:47:59.491Z,96.10
2017-12-25T02:50:27.203Z,96.10
2017-12-25T02:52:55.450Z,96.10
2017-12-25T02:55:24.239Z,96.70
2017-12-25T02:57:52.071Z,96.70
2017-12-25T03:00:22.841Z,97.40
2017-12-25T03:02:51.606Z,97.50
2017-12-25T03:05:20.455Z,97.60
2017-12-25T03:07:48.004Z,97.60
2017-12-25T03:10:15.519Z,97.60
2017-12-25T03:12:43.039Z,97.80
2017-12-25T03:15:10.578Z,97.80
2017-12-25T03:17:38.095Z,97.90
2017-12-25T03:20:05.628Z,98.00
2017-12-25T03:22:33.156Z,98.10
2017-12-25T03:25:00.841Z,98.20
2017-12-25T03:27:28.603Z,98.40
2017-12-25T03:29:56.184Z,98.40
2017-12-25T03:32:24.147Z,98.40
2017-12-25T03:34:52.821Z,98.40
2017-12-25T03:37:21.711Z,98.50
2017-12-25T03:39:49.241Z,98.30
2017-12-25T03:42:17.542Z,98.40
2017-12-25T03:44:45.260Z,98.30
2017-12-25T03:47:12.772Z,98.00
2017-12-25T03:49:41.060Z,97.20
2017-12-25T03:52:08.594Z,97.20
2017-12-25T03:54:36.134Z,97.30
2017-12-25T03:57:04.529Z,96.80
2017-12-25T03:59:32.892Z,96.60
2017-12-25T04:02:01.225Z,96.70
2017-12-25T04:04:28.856Z,96.60
2017-12-25T04:06:56.485Z,96.60
2017-12-25T04:09:24.380Z,96.20
2017-12-25T04:11:52.146Z,96.20
2017-12-25T04:14:20.831Z,95.60
2017-12-25T04:16:48.476Z,95.60
2017-12-25T04:19:16.013Z,95.60
2017-12-25T04:21:44.293Z,95.80
2017-12-25T04:24:12.575Z,95.70
2017-12-25T04:26:40.868Z,95.50
2017-12-25T04:29:08.399Z,95.50
2017-12-25T04:31:35.928Z,95.30
2017-12-25T04:34:03.457Z,95.20
2017-12-25T04:36:31.042Z,95.20
2017-12-25T04:38:58.904Z,94.90
2017-12-25T04:41:26.776Z,94.70
2017-12-25T04:43:54.623Z,94.50
2017-12-25T04:46:22.617Z,94.70
2017-12-25T04:48:50.373Z,94.60
2017-12-25T04:51:17.921Z,94.90
2017-12-25T04:53:45.443Z,94.60
2017-12-25T04:56:12.978Z,94.70
2017-12-25T04:58:40.489Z,94.90
2017-12-25T05:01:08.025Z,94.80
2017-12-25T05:03:35.544Z,94.90
2017-12-25T05:06:03.121Z,94.70
2017-12-25T05:08:30.801Z,94.80
2017-12-25T05:10:59.225Z,94.90
2017-12-25T05:13:27.005Z,94.90
2017-12-25T05:15:54.917Z,94.70
2017-12-25T05:18:23.140Z,94.70
2017-12-25T05:20:51.641Z,94.60
2017-12-25T05:23:20.012Z,94.70
2017-12-25T05:25:47.578Z,94.70
2017-12-25T05:28:15.092Z,94.70
2017-12-25T05:30:43.385Z,94.30
2017-12-25T05:33:10.899Z,94.30
2017-12-25T05:35:38.429Z,94.30
2017-12-25T05:38:05.939Z,94.40
2017-12-25T05:40:34.225Z,94.00
2017-12-25T05:43:02.534Z,94.00
2017-12-25T05:45:30.171Z,94.00
2017-12-25T05:47:57.854Z,93.80
2017-12-25T05:50:25.722Z,93.90
2017-12-25T05:52:53.775Z,93.90
2017-12-25T05:55:23.392Z,93.70
2017-12-25T05:57:52.059Z,93.70
2017-12-25T06:00:19.617Z,93.80
2017-12-25T06:02:48.022Z,94.10
2017-12-25T06:05:15.557Z,94.10
2017-12-25T06:07:43.126Z,94.20
2017-12-25T06:10:10.672Z,94.40
2017-12-25T06:12:38.186Z,94.50
2017-12-25T06:15:06.472Z,94.60
2017-12-25T06:17:34.763Z,94.60
2017-12-25T06:20:02.312Z,94.60
2017-12-25T06:22:29.993Z,94.70
2017-12-25T06:24:57.576Z,94.90
2017-12-25T06:27:25.318Z,94.70
2017-12-25T06:29:53.393Z,94.80
2017-12-25T06:32:21.599Z,94.90
2017-12-25T06:34:50.074Z,95.00
2017-12-25T06:37:17.649Z,95.00
2017-12-25T06:39:45.178Z,95.10
2017-12-25T06:42:12.688Z,95.10
2017-12-25T06:44:40.229Z,95.20
2017-12-25T06:47:07.741Z,95.30
2017-12-25T06:49:35.257Z,95.20
2017-12-25T06:52:02.784Z,95.30
2017-12-25T06:54:31.365Z,95.70
2017-12-25T06:56:59.790Z,95.50
2017-12-25T06:59:27.416Z,95.50
2017-12-25T07:01:55.273Z,95.40
2017-12-25T07:04:23.964Z,95.40
2017-12-25T07:06:52.480Z,95.40
2017-12-25T07:09:20.465Z,95.40
2017-12-25T07:11:48.022Z,95.40
2017-12-25T07:14:15.558Z,95.30
2017-12-25T07:16:43.078Z,95.50
2017-12-25T07:19:11.404Z,95.30
2017-12-25T07:21:38.917Z,95.30
2017-12-25T07:24:07.209Z,95.20
2017-12-25T07:26:34.749Z,95.10
2017-12-25T07:29:03.049Z,95.20
2017-12-25T07:31:30.649Z,95.20
2017-12-25T07:33:58.852Z,95.30
2017-12-25T07:36:26.864Z,95.40
2017-12-25T07:38:56.153Z,95.40
2017-12-25T07:41:23.933Z,95.50
2017-12-25T07:43:52.003Z,95.60
2017-12-25T07:46:19.664Z,95.40
2017-12-25T07:48:47.204Z,95.50
2017-12-25T07:51:15.095Z,95.80
2017-12-25T07:53:42.606Z,95.60
2017-12-25T07:56:10.330Z,95.70
2017-12-25T07:58:37.849Z,96.00
2017-12-25T08:01:05.412Z,95.40
2017-12-25T08:03:33.738Z,95.10
2017-12-25T08:06:02.122Z,95.10
2017-12-25T08:08:30.876Z,94.90
2017-12-25T08:10:59.459Z,94.90
2017-12-25T08:13:28.562Z,94.70
2017-12-25T08:15:57.006Z,94.70
2017-12-25T08:18:26.044Z,94.50
2017-12-25T08:20:55.390Z,94.20
2017-12-25T08:23:23.418Z,94.10
2017-12-25T08:25:52.254Z,93.80
2017-12-25T08:28:20.365Z,93.90
2017-12-25T08:30:48.875Z,93.30
2017-12-25T08:33:16.413Z,93.30
2017-12-25T08:35:43.965Z,93.10
2017-12-25T08:38:11.512Z,92.90
2017-12-25T08:40:39.825Z,92.80
2017-12-25T08:43:07.390Z,92.80
2017-12-25T08:45:34.919Z,92.70
2017-12-25T08:48:03.582Z,92.40
2017-12-25T08:50:31.161Z,92.40
2017-12-25T08:52:59.372Z,92.50
2017-12-25T09:04:36.154Z,92.00
2017-12-25T09:07:03.694Z,91.50
2017-12-25T09:09:31.262Z,91.30
2017-12-25T09:12:00.201Z,90.90
2017-12-25T09:14:28.517Z,90.50
2017-12-25T09:16:56.101Z,90.50
2017-12-25T09:19:23.853Z,90.40
2017-12-25T09:21:51.444Z,90.20
2017-12-25T09:24:19.000Z,90.10
2017-12-25T09:26:46.514Z,90.10
2017-12-25T09:29:14.189Z,90.20
2017-12-25T09:31:41.696Z,90.10
2017-12-25T09:34:09.216Z,90.10
2017-12-25T09:36:36.731Z,90.00
2017-12-25T09:39:04.799Z,90.30
2017-12-25T09:41:32.382Z,90.20
2017-12-25T09:43:59.948Z,90.70
2017-12-25T09:46:27.586Z,90.50
2017-12-25T09:48:55.143Z,90.80
2017-12-25T09:51:22.732Z,90.80
2017-12-25T09:53:50.423Z,90.60
2017-12-25T09:56:17.986Z,90.50
2017-12-25T09:58:45.556Z,90.30
2017-12-25T10:01:13.083Z,90.10
2017-12-25T10:03:40.610Z,90.00
2017-12-25T10:06:08.160Z,90.10
2017-12-25T10:08:35.714Z,90.00
2017-12-25T10:11:03.233Z,90.10
2017-12-25T10:13:30.955Z,90.00
2017-12-25T10:15:58.541Z,89.20
2017-12-25T10:18:26.458Z,88.70
2017-12-25T10:20:54.194Z,88.50
2017-12-25T10:23:21.858Z,88.60
2017-12-25T10:25:49.465Z,88.60
2017-12-25T10:28:17.550Z,89.20
2017-12-25T10:30:45.124Z,89.40
2017-12-25T10:33:13.428Z,89.40
2017-12-25T10:35:41.001Z,89.40
2017-12-25T10:38:08.538Z,89.40
2017-12-25T10:40:36.820Z,89.30
2017-12-25T10:43:04.397Z,89.30
2017-12-25T10:45:32.748Z,89.40
2017-12-25T10:48:01.183Z,89.60
2017-12-25T10:50:28.710Z,89.60
2017-12-25T10:52:56.385Z,89.00
2017-12-25T10:55:23.998Z,88.50
2017-12-25T10:57:51.598Z,88.00
2017-12-25T11:00:19.289Z,86.80
2017-12-25T11:02:46.798Z,86.50
2017-12-25T11:05:15.191Z,86.60
2017-12-25T11:07:43.598Z,86.70
2017-12-25T11:10:11.125Z,86.70
2017-12-25T11:12:39.475Z,87.40
2017-12-25T11:15:06.964Z,87.40
2017-12-25T11:17:34.526Z,87.80
2017-12-25T11:20:02.802Z,87.20
2017-12-25T11:22:30.361Z,87.20
2017-12-25T11:24:58.700Z,87.10
2017-12-25T11:27:26.248Z,87.10
2017-12-25T11:29:53.857Z,86.40
2017-12-25T11:32:22.132Z,87.00
2017-12-25T11:34:49.664Z,87.00
2017-12-25T11:37:17.711Z,87.20
2017-12-25T11:39:46.011Z,86.50
2017-12-25T11:42:13.541Z,86.50
2017-12-25T11:44:41.824Z,86.20
2017-12-25T11:47:10.117Z,85.10
2017-12-25T11:49:37.637Z,85.00
2017-12-25T11:52:06.121Z,84.70
2017-12-25T11:54:33.641Z,84.30
2017-12-25T11:57:01.206Z,85.00
2017-12-25T11:59:28.855Z,85.70
2017-12-25T12:01:56.577Z,85.70
2017-12-25T12:04:24.181Z,85.40
2017-12-25T12:06:51.736Z,85.10
2017-12-25T12:09:20.204Z,84.10
2017-12-25T12:11:47.721Z,84.10
2017-12-25T12:14:15.305Z,83.80
2017-12-25T12:16:43.713Z,83.90
2017-12-25T12:19:11.240Z,83.80
2017-12-25T12:21:38.800Z,83.60
2017-12-25T12:24:07.082Z,84.50
2017-12-25T12:26:35.401Z,84.20
2017-12-25T12:29:02.926Z,84.20
2017-12-25T12:31:31.245Z,84.10
2017-12-25T12:33:58.913Z,84.20
2017-12-25T12:36:26.452Z,83.90
2017-12-25T12:38:54.029Z,84.10
2017-12-25T12:41:21.607Z,83.80
2017-12-25T12:43:49.147Z,83.40
2017-12-25T12:46:16.677Z,84.20
2017-12-25T12:48:44.270Z,84.30
2017-12-25T12:51:11.781Z,84.40
2017-12-25T12:53:40.058Z,83.50
2017-12-25T12:56:08.367Z,82.70
2017-12-25T12:58:35.877Z,82.70
2017-12-25T13:01:03.449Z,83.10
2017-12-25T13:03:31.725Z,84.10
2017-12-25T13:06:00.041Z,83.70
2017-12-25T13:08:27.694Z,83.70
2017-12-25T13:10:55.674Z,83.50
2017-12-25T13:13:23.249Z,82.00
2017-12-25T13:15:50.860Z,82.70
2017-12-25T13:18:19.170Z,82.80
2017-12-25T13:20:46.690Z,82.80
2017-12-25T13:23:14.220Z,82.70
2017-12-25T13:25:41.741Z,83.10
2017-12-25T13:28:09.254Z,83.10
2017-12-25T13:30:36.784Z,83.60
2017-12-25T13:33:04.306Z,82.80
2017-12-25T13:35:31.886Z,83.50
2017-12-25T13:37:59.452Z,84.30
2017-12-25T13:40:27.099Z,84.80
2017-12-25T13:42:55.412Z,85.10
2017-12-25T13:45:23.295Z,85.20
2017-12-25T13:47:51.155Z,85.10
2017-12-25T13:50:18.693Z,85.40
2017-12-25T13:52:46.218Z,85.70
2017-12-25T13:55:13.733Z,86.30
2017-12-25T13:57:41.269Z,86.20
2017-12-25T14:00:09.548Z,86.10
2017-12-25T14:02:37.059Z,86.20
2017-12-25T14:05:04.596Z,86.20
2017-12-25T14:07:32.121Z,87.00
2017-12-25T14:10:00.426Z,87.30
2017-12-25T14:12:27.969Z,87.30
2017-12-25T14:14:55.532Z,87.80
2017-12-25T14:17:23.217Z,87.80
2017-12-25T14:19:50.855Z,88.10
2017-12-25T14:22:18.396Z,87.80
2017-12-25T14:24:45.908Z,87.10
2017-12-25T14:27:14.265Z,86.20
2017-12-25T14:29:41.779Z,86.00
2017-12-25T14:32:09.313Z,86.90
2017-12-25T14:34:36.906Z,86.50
2017-12-25T14:37:04.437Z,86.00
2017-12-25T14:39:32.185Z,86.00
2017-12-25T14:41:59.757Z,86.30
2017-12-25T14:44:28.230Z,87.30
2017-12-25T14:46:55.756Z,87.20
2017-12-25T14:49:23.591Z,86.20
2017-12-25T14:51:51.184Z,86.00
2017-12-25T14:54:19.457Z,87.60
2017-12-25T14:56:47.493Z,87.60
2017-12-25T14:59:15.006Z,87.90
2017-12-25T15:01:42.537Z,87.90
2017-12-25T15:04:10.831Z,88.40
2017-12-25T15:06:39.132Z,88.20
2017-12-25T15:09:06.645Z,88.20
2017-12-25T15:11:34.169Z,88.40
2017-12-25T15:14:01.719Z,88.10
2017-12-25T15:16:29.258Z,88.20
2017-12-25T15:18:56.813Z,88.60
2017-12-25T15:21:25.182Z,87.10
2017-12-25T15:23:53.492Z,87.20
2017-12-25T15:26:21.850Z,86.40
2017-12-25T15:28:49.370Z,86.40
2017-12-25T15:31:16.910Z,86.70
2017-12-25T15:33:44.420Z,86.80
2017-12-25T15:36:12.708Z,86.70
2017-12-25T15:38:40.988Z,86.50
2017-12-25T15:41:08.534Z,86.40
2017-12-25T15:43:36.047Z,86.70
2017-12-25T15:46:03.570Z,86.90
2017-12-25T15:48:31.146Z,86.50
2017-12-25T15:50:58.695Z,86.50
2017-12-25T15:53:26.280Z,86.50
2017-12-25T15:55:54.218Z,86.50
2017-12-25T15:58:22.582Z,86.80
2017-12-25T16:00:50.196Z,86.70
2017-12-25T16:03:17.724Z,87.00
2017-12-25T16:05:45.301Z,87.00
2017-12-25T16:08:12.841Z,86.70
2017-12-25T16:10:40.393Z,87.20
2017-12-25T16:13:08.695Z,87.30
2017-12-25T16:15:36.233Z,87.30
2017-12-25T16:18:04.516Z,87.50
2017-12-25T16:20:32.797Z,87.90
2017-12-25T16:23:00.337Z,87.80
2017-12-25T16:25:27.938Z,87.70
2017-12-25T16:27:55.481Z,87.40
2017-12-25T16:30:23.064Z,87.10
2017-12-25T16:32:50.704Z,86.70
2017-12-25T16:35:18.216Z,86.90
2017-12-25T16:37:45.779Z,86.60
2017-12-25T16:40:13.337Z,86.80
2017-12-25T16:42:41.784Z,87.00
2017-12-25T16:45:09.338Z,87.00
2017-12-25T16:47:36.848Z,87.10
2017-12-25T16:50:04.417Z,87.30
2017-12-25T16:52:31.929Z,87.40
2017-12-25T16:54:59.585Z,87.60
2017-12-25T16:57:27.120Z,87.60
2017-12-25T16:59:54.662Z,88.20
2017-12-25T17:02:22.981Z,88.40
2017-12-25T17:04:50.521Z,88.40
2017-12-25T17:07:18.120Z,89.00
2017-12-25T17:09:45.650Z,89.30
2017-12-25T17:12:13.161Z,89.20
2017-12-25T17:14:40.710Z,89.40
2017-12-25T17:17:08.220Z,89.60
2017-12-25T17:19:36.530Z,90.10
2017-12-25T17:22:04.046Z,90.10
2017-12-25T17:24:32.328Z,90.10
2017-12-25T17:27:00.659Z,90.30
2017-12-25T17:29:28.179Z,90.30
2017-12-25T17:31:55.738Z,90.30
2017-12-25T17:34:24.049Z,90.60
2017-12-25T17:36:51.568Z,90.50
2017-12-25T17:39:19.871Z,90.40
2017-12-25T17:41:47.380Z,90.40
2017-12-25T17:44:15.051Z,90.50
2017-12-25T17:46:43.337Z,90.90
2017-12-25T17:49:10.849Z,90.90
2017-12-25T17:51:38.377Z,91.00
2017-12-25T17:54:05.886Z,91.20
2017-12-25T17:56:33.420Z,91.30
2017-12-25T17:59:00.949Z,91.50
2017-12-25T18:01:29.241Z,91.10
2017-12-25T18:03:56.914Z,91.00
2017-12-25T18:06:24.485Z,91.00
2017-12-25T18:08:52.127Z,91.00
2017-12-25T18:11:20.107Z,90.70
2017-12-25T18:13:47.621Z,90.50
2017-12-25T18:16:15.284Z,90.50
2017-12-25T18:18:43.617Z,90.60
2017-12-25T18:21:11.145Z,90.60
2017-12-25T18:23:38.654Z,90.70
2017-12-25T18:26:06.172Z,91.00
2017-12-25T18:28:33.707Z,91.40
2017-12-25T18:31:02.016Z,91.30
2017-12-25T18:33:29.568Z,91.40
2017-12-25T18:35:57.861Z,91.60
2017-12-25T18:38:25.393Z,91.60
2017-12-25T18:40:54.021Z,91.60
2017-12-25T18:43:21.680Z,91.60
2017-12-25T18:45:49.242Z,91.70
2017-12-25T18:48:16.761Z,91.60
2017-12-25T18:50:45.137Z,91.20
2017-12-25T18:53:13.440Z,91.30
2017-12-25T18:55:40.963Z,91.30
2017-12-25T18:58:09.269Z,90.80
2017-12-25T19:00:36.793Z,90.80
2017-12-25T19:03:04.333Z,90.70
2017-12-25T19:05:31.880Z,90.50
2017-12-25T19:07:59.430Z,90.40
2017-12-25T19:10:26.987Z,90.50
2017-12-25T19:12:54.557Z,90.60
2017-12-25T19:15:22.426Z,90.50
2017-12-25T19:17:49.968Z,90.40
2017-12-25T19:20:17.634Z,90.40
2017-12-25T19:22:45.212Z,90.60
2017-12-25T19:25:12.740Z,90.30
2017-12-25T19:27:41.034Z,90.50
2017-12-25T19:30:08.554Z,90.50
2017-12-25T19:32:36.848Z,90.40
2017-12-25T19:35:05.157Z,90.50
2017-12-25T19:37:32.683Z,90.50
2017-12-25T19:40:00.223Z,90.50
2017-12-25T19:42:27.951Z,90.50
2017-12-25T19:44:55.497Z,90.60
2017-12-25T19:47:23.056Z,90.50
2017-12-25T19:49:50.834Z,90.60
2017-12-25T19:52:18.356Z,90.80
2017-12-25T19:54:46.654Z,90.70
2017-12-25T19:57:14.211Z,90.70
2017-12-25T19:59:41.789Z,90.70
2017-12-25T20:02:09.300Z,90.70
2017-12-25T20:04:36.838Z,90.70
2017-12-25T20:07:04.358Z,90.90
2017-12-25T20:09:31.886Z,90.80
2017-12-25T20:11:59.603Z,90.90
2017-12-25T20:14:27.133Z,90.90
2017-12-25T20:16:54.724Z,90.90
2017-12-25T20:19:22.275Z,91.00
2017-12-25T20:21:49.801Z,91.10
2017-12-25T20:24:17.480Z,91.00
2017-12-25T20:26:45.171Z,91.10
2017-12-25T20:29:12.711Z,91.00
2017-12-25T20:31:40.242Z,90.90
2017-12-25T20:34:08.531Z,90.90
2017-12-25T20:36:36.075Z,90.90
2017-12-25T20:39:03.594Z,91.00
2017-12-25T20:41:31.137Z,91.00
2017-12-25T20:43:58.841Z,90.90
2017-12-25T20:46:27.167Z,90.90
2017-12-25T20:48:54.712Z,90.90
2017-12-25T20:51:22.406Z,91.10
2017-12-25T20:53:49.973Z,90.90
2017-12-25T20:56:17.494Z,90.80
2017-12-25T20:58:45.785Z,90.80
2017-12-25T21:01:13.327Z,90.80
2017-12-25T21:03:40.845Z,90.80
2017-12-25T21:06:08.385Z,90.90
2017-12-25T21:08:35.913Z,90.90
2017-12-25T21:11:04.206Z,90.60
2017-12-25T21:13:31.764Z,90.70
2017-12-25T21:15:59.361Z,90.60
2017-12-25T21:18:26.912Z,90.70
2017-12-25T21:20:54.578Z,90.50
2017-12-25T21:23:22.133Z,90.80
2017-12-25T21:25:49.664Z,90.60
2017-12-25T21:28:17.178Z,90.70
2017-12-25T21:30:44.721Z,90.40
2017-12-25T21:33:12.272Z,90.30
2017-12-25T21:35:39.819Z,90.40
2017-12-25T21:38:07.327Z,90.60
2017-12-25T21:40:34.857Z,91.10
2017-12-25T21:43:02.397Z,91.50
2017-12-25T21:45:29.924Z,91.80
2017-12-25T21:47:57.506Z,92.10
2017-12-25T21:50:25.202Z,92.50
2017-12-25T21:52:52.760Z,92.90
2017-12-25T21:55:22.369Z,93.70
2017-12-25T21:57:49.905Z,93.70
2017-12-25T22:00:17.440Z,93.80
2017-12-25T22:02:44.974Z,94.00
2017-12-25T22:05:12.522Z,94.20
2017-12-25T22:07:40.805Z,94.60
2017-12-25T22:10:09.095Z,94.70
2017-12-25T22:12:36.637Z,94.70
2017-12-25T22:15:04.934Z,94.60
2017-12-25T22:17:32.462Z,94.60
2017-12-25T22:20:00.720Z,94.60
2017-12-25T22:22:28.261Z,95.10
2017-12-25T22:24:55.773Z,95.00
2017-12-25T22:27:24.098Z,95.30
2017-12-25T22:29:51.649Z,95.30
2017-12-25T22:32:19.258Z,95.50
2017-12-25T22:34:46.900Z,95.40
2017-12-25T22:37:14.508Z,95.10
2017-12-25T22:39:42.062Z,95.20
2017-12-25T22:42:10.372Z,95.40
2017-12-25T22:44:37.912Z,95.60
2017-12-25T22:47:05.487Z,95.60
2017-12-25T22:49:33.009Z,95.60
2017-12-25T22:52:01.343Z,95.60
2017-12-25T22:54:28.859Z,95.60
2017-12-25T22:56:56.406Z,95.80
2017-12-25T22:59:24.006Z,95.70
2017-12-25T23:01:51.533Z,95.80
2017-12-25T23:04:19.840Z,96.10
2017-12-25T23:06:47.365Z,96.10
2017-12-25T23:09:15.916Z,96.00
2017-12-25T23:11:43.464Z,96.00
2017-12-25T23:14:11.031Z,96.20
2017-12-25T23:16:38.614Z,96.20
2017-12-25T23:19:06.167Z,96.20
2017-12-25T23:21:33.712Z,96.10
2017-12-25T23:24:01.231Z,95.90
2017-12-25T23:26:28.781Z,95.70
2017-12-25T23:28:57.067Z,95.90
2017-12-25T23:31:24.642Z,95.90
2017-12-25T23:33:52.160Z,96.00
2017-12-25T23:36:20.502Z,95.90
2017-12-25T23:38:48.081Z,95.90
2017-12-25T23:41:16.361Z,96.00
2017-12-25T23:43:43.902Z,96.00
2017-12-25T23:46:11.439Z,96.10
2017-12-25T23:48:39.146Z,96.20
2017-12-25T23:51:06.686Z,96.20
2017-12-25T23:53:34.213Z,96.40
2017-12-25T23:56:01.763Z,97.30
2017-12-25T23:58:29.307Z,97.30
